sensor_id;sensor_type;location;lat;lon;timestamp;pressure;altitude;pressure_sealevel;temperature;humidity
76853;BME280;65825;52.232;10.566;2023-02-15T00:00:14;102158.88;;;0.54;97.26
76853;BME280;65825;52.232;10.566;2023-02-15T00:02:39;102163.84;;;0.75;97.77
76853;BME280;65825;52.232;10.566;2023-02-15T00:05:05;102158.47;;;0.69;98.05
76853;BME280;65825;52.232;10.566;2023-02-15T00:07:30;102155.75;;;0.66;97.85
76853;BME280;65825;52.232;10.566;2023-02-15T00:09:56;102155.69;;;0.63;96.96
76853;BME280;65825;52.232;10.566;2023-02-15T00:12:21;102161.75;;;0.63;96.51
76853;BME280;65825;52.232;10.566;2023-02-15T00:14:50;102164.22;;;0.59;96.94
76853;BME280;65825;52.232;10.566;2023-02-15T00:17:15;102163.38;;;0.60;96.49
76853;BME280;65825;52.232;10.566;2023-02-15T00:19:40;102158.28;;;0.63;96.07
76853;BME280;65825;52.232;10.566;2023-02-15T00:22:06;102158.38;;;0.66;95.72
76853;BME280;65825;52.232;10.566;2023-02-15T00:24:31;102153.28;;;0.69;95.91
76853;BME280;65825;52.232;10.566;2023-02-15T00:26:56;102146.94;;;0.61;95.72
76853;BME280;65825;52.232;10.566;2023-02-15T00:29:22;102155.69;;;0.63;95.44
76853;BME280;65825;52.232;10.566;2023-02-15T00:31:47;102154.53;;;0.55;95.25
76853;BME280;65825;52.232;10.566;2023-02-15T00:34:16;102157.69;;;0.45;95.96
76853;BME280;65825;52.232;10.566;2023-02-15T00:36:43;102158.16;;;0.33;96.93
76853;BME280;65825;52.232;10.566;2023-02-15T00:39:09;102161.47;;;0.28;96.74
76853;BME280;65825;52.232;10.566;2023-02-15T00:41:35;102150.22;;;0.29;96.60
76853;BME280;65825;52.232;10.566;2023-02-15T00:44:00;102150.22;;;0.29;95.81
76853;BME280;65825;52.232;10.566;2023-02-15T00:46:26;102147.50;;;0.24;95.19
76853;BME280;65825;52.232;10.566;2023-02-15T00:48:51;102142.91;;;0.17;95.20
76853;BME280;65825;52.232;10.566;2023-02-15T00:51:16;102139.28;;;0.12;94.44
76853;BME280;65825;52.232;10.566;2023-02-15T00:53:42;102126.53;;;-0.07;94.04
76853;BME280;65825;52.232;10.566;2023-02-15T00:56:09;102131.72;;;-0.07;94.60
76853;BME280;65825;52.232;10.566;2023-02-15T00:58:34;102125.56;;;-0.10;95.87
76853;BME280;65825;52.232;10.566;2023-02-15T01:01:05;102118.25;;;0.05;96.26
76853;BME280;65825;52.232;10.566;2023-02-15T01:03:30;102121.16;;;0.14;97.90
76853;BME280;65825;52.232;10.566;2023-02-15T01:05:56;102111.81;;;0.19;97.56
76853;BME280;65825;52.232;10.566;2023-02-15T01:08:21;102102.94;;;0.39;97.86
76853;BME280;65825;52.232;10.566;2023-02-15T01:10:46;102108.78;;;0.32;98.24
76853;BME280;65825;52.232;10.566;2023-02-15T01:13:12;102099.38;;;0.35;98.48
76853;BME280;65825;52.232;10.566;2023-02-15T01:15:38;102096.00;;;0.38;98.24
76853;BME280;65825;52.232;10.566;2023-02-15T01:18:03;102093.44;;;0.39;97.92
76853;BME280;65825;52.232;10.566;2023-02-15T01:20:29;102093.28;;;0.35;97.87
76853;BME280;65825;52.232;10.566;2023-02-15T01:22:56;102098.59;;;0.38;97.43
76853;BME280;65825;52.232;10.566;2023-02-15T01:25:22;102097.88;;;0.42;97.06
76853;BME280;65825;52.232;10.566;2023-02-15T01:27:48;102087.22;;;0.34;96.73
76853;BME280;65825;52.232;10.566;2023-02-15T01:30:14;102088.63;;;0.25;97.20
76853;BME280;65825;52.232;10.566;2023-02-15T01:32:40;102092.78;;;0.18;96.85
76853;BME280;65825;52.232;10.566;2023-02-15T01:35:06;102083.91;;;0.12;96.71
76853;BME280;65825;52.232;10.566;2023-02-15T01:37:33;102095.16;;;0.12;96.59
76853;BME280;65825;52.232;10.566;2023-02-15T01:39:59;102085.47;;;0.07;96.20
76853;BME280;65825;52.232;10.566;2023-02-15T01:42:26;102080.94;;;0.01;95.89
76853;BME280;65825;52.232;10.566;2023-02-15T01:47:39;102091.38;;;-0.22;95.91
76853;BME280;65825;52.232;10.566;2023-02-15T01:50:10;102084.28;;;-0.28;96.37
76853;BME280;65825;52.232;10.566;2023-02-15T01:52:42;102079.91;;;-0.29;96.04
76853;BME280;65825;52.232;10.566;2023-02-15T01:55:09;102087.50;;;-0.35;95.85
76853;BME280;65825;52.232;10.566;2023-02-15T01:57:35;102086.72;;;-0.32;95.13
76853;BME280;65825;52.232;10.566;2023-02-15T02:00:03;102086.94;;;-0.51;96.18
76853;BME280;65825;52.232;10.566;2023-02-15T02:02:29;102086.63;;;-0.35;95.73
76853;BME280;65825;52.232;10.566;2023-02-15T02:04:58;102082.16;;;-0.39;95.96
76853;BME280;65825;52.232;10.566;2023-02-15T02:07:27;102074.25;;;-0.42;95.95
76853;BME280;65825;52.232;10.566;2023-02-15T02:09:53;102064.59;;;-0.21;96.10
76853;BME280;65825;52.232;10.566;2023-02-15T02:12:20;102060.16;;;-0.25;95.42
76853;BME280;65825;52.232;10.566;2023-02-15T02:14:47;102057.91;;;-0.40;95.56
76853;BME280;65825;52.232;10.566;2023-02-15T02:23:08;102044.72;;;-0.71;96.13
76853;BME280;65825;52.232;10.566;2023-02-15T02:25:56;102055.94;;;-0.72;96.40
76853;BME280;65825;52.232;10.566;2023-02-15T02:34:15;102058.38;;;-0.76;96.06
76853;BME280;65825;52.232;10.566;2023-02-15T02:39:55;102048.94;;;-0.74;94.90
76853;BME280;65825;52.232;10.566;2023-02-15T02:42:42;102043.94;;;-0.93;94.24
76853;BME280;65825;52.232;10.566;2023-02-15T02:45:16;102042.06;;;-0.97;94.72
76853;BME280;65825;52.232;10.566;2023-02-15T02:47:59;102036.41;;;-1.09;94.86
76853;BME280;65825;52.232;10.566;2023-02-15T02:50:27;102031.13;;;-1.12;94.88
76853;BME280;65825;52.232;10.566;2023-02-15T02:52:56;102033.72;;;-1.12;94.55
76853;BME280;65825;52.232;10.566;2023-02-15T02:55:31;102021.53;;;-1.14;95.03
76853;BME280;65825;52.232;10.566;2023-02-15T03:00:47;102017.47;;;-1.08;95.45
76853;BME280;65825;52.232;10.566;2023-02-15T03:03:20;102017.22;;;-1.14;96.18
76853;BME280;65825;52.232;10.566;2023-02-15T03:05:51;102020.84;;;-1.10;95.76
76853;BME280;65825;52.232;10.566;2023-02-15T03:08:19;102027.06;;;-1.05;96.83
76853;BME280;65825;52.232;10.566;2023-02-15T03:10:48;102022.31;;;-0.93;97.17
76853;BME280;65825;52.232;10.566;2023-02-15T03:13:14;102019.78;;;-0.92;96.89
76853;BME280;65825;52.232;10.566;2023-02-15T03:15:41;102012.84;;;-0.93;96.85
76853;BME280;65825;52.232;10.566;2023-02-15T03:18:48;102009.50;;;-0.89;96.07
76853;BME280;65825;52.232;10.566;2023-02-15T03:21:27;102013.44;;;-1.00;96.60
76853;BME280;65825;52.232;10.566;2023-02-15T03:24:00;102007.88;;;-1.10;95.86
76853;BME280;65825;52.232;10.566;2023-02-15T03:26:29;102010.41;;;-1.12;95.14
76853;BME280;65825;52.232;10.566;2023-02-15T03:28:56;102000.59;;;-1.20;95.13
76853;BME280;65825;52.232;10.566;2023-02-15T03:31:26;101997.81;;;-1.25;96.12
76853;BME280;65825;52.232;10.566;2023-02-15T03:34:06;102008.41;;;-1.19;95.61
76853;BME280;65825;52.232;10.566;2023-02-15T03:36:37;102005.28;;;-1.10;96.02
76853;BME280;65825;52.232;10.566;2023-02-15T03:39:13;101998.50;;;-1.07;96.98
76853;BME280;65825;52.232;10.566;2023-02-15T03:41:46;101984.72;;;-1.06;96.58
76853;BME280;65825;52.232;10.566;2023-02-15T03:44:19;101988.84;;;-1.11;96.93
76853;BME280;65825;52.232;10.566;2023-02-15T03:47:10;101979.53;;;-1.06;96.29
76853;BME280;65825;52.232;10.566;2023-02-15T03:49:42;101977.66;;;-1.10;96.07
76853;BME280;65825;52.232;10.566;2023-02-15T03:52:10;101974.72;;;-1.19;96.67
76853;BME280;65825;52.232;10.566;2023-02-15T03:54:37;101969.66;;;-1.16;96.70
76853;BME280;65825;52.232;10.566;2023-02-15T03:57:22;101978.28;;;-1.17;96.38
76853;BME280;65825;52.232;10.566;2023-02-15T04:00:20;101968.13;;;-1.11;96.44
76853;BME280;65825;52.232;10.566;2023-02-15T04:05:33;101969.03;;;-1.09;98.11
76853;BME280;65825;52.232;10.566;2023-02-15T04:07:58;101967.34;;;-1.08;97.50
76853;BME280;65825;52.232;10.566;2023-02-15T04:10:23;101967.50;;;-1.04;97.29
76853;BME280;65825;52.232;10.566;2023-02-15T04:13:07;101962.88;;;-1.13;97.56
76853;BME280;65825;52.232;10.566;2023-02-15T04:15:33;101960.47;;;-1.08;97.50
76853;BME280;65825;52.232;10.566;2023-02-15T04:18:16;101966.50;;;-1.08;96.71
76853;BME280;65825;52.232;10.566;2023-02-15T04:20:45;101969.03;;;-1.09;96.93
76853;BME280;65825;52.232;10.566;2023-02-15T04:23:29;101969.81;;;-1.12;96.55
76853;BME280;65825;52.232;10.566;2023-02-15T04:26:14;101974.34;;;-1.06;96.51
76853;BME280;65825;52.232;10.566;2023-02-15T04:28:39;101966.56;;;-1.06;96.31
76853;BME280;65825;52.232;10.566;2023-02-15T04:31:04;101968.41;;;-1.03;95.66
76853;BME280;65825;52.232;10.566;2023-02-15T04:33:32;101971.53;;;-1.12;95.05
76853;BME280;65825;52.232;10.566;2023-02-15T04:35:57;101974.69;;;-1.20;95.07
76853;BME280;65825;52.232;10.566;2023-02-15T04:38:22;101972.81;;;-1.24;95.68
76853;BME280;65825;52.232;10.566;2023-02-15T04:40:51;101970.16;;;-1.26;96.50
76853;BME280;65825;52.232;10.566;2023-02-15T04:43:20;101966.88;;;-1.22;96.30
76853;BME280;65825;52.232;10.566;2023-02-15T04:45:49;101961.78;;;-1.19;95.84
76853;BME280;65825;52.232;10.566;2023-02-15T04:48:15;101960.91;;;-1.19;95.86
76853;BME280;65825;52.232;10.566;2023-02-15T04:50:41;101950.44;;;-1.23;96.12
76853;BME280;65825;52.232;10.566;2023-02-15T04:53:06;101952.09;;;-1.24;96.39
76853;BME280;65825;52.232;10.566;2023-02-15T04:55:31;101948.66;;;-1.23;96.71
76853;BME280;65825;52.232;10.566;2023-02-15T04:57:56;101950.44;;;-1.23;96.41
76853;BME280;65825;52.232;10.566;2023-02-15T05:00:22;101940.06;;;-1.23;96.76
76853;BME280;65825;52.232;10.566;2023-02-15T05:02:47;101939.63;;;-1.11;97.25
76853;BME280;65825;52.232;10.566;2023-02-15T05:05:13;101937.09;;;-1.09;97.40
76853;BME280;65825;52.232;10.566;2023-02-15T05:07:40;101927.16;;;-1.21;97.92
76853;BME280;65825;52.232;10.566;2023-02-15T05:10:05;101927.28;;;-1.18;97.68
76853;BME280;65825;52.232;10.566;2023-02-15T05:12:31;101925.78;;;-1.12;97.86
76853;BME280;65825;52.232;10.566;2023-02-15T05:14:56;101928.38;;;-1.12;97.75
76853;BME280;65825;52.232;10.566;2023-02-15T05:17:21;101934.50;;;-1.09;97.96
76853;BME280;65825;52.232;10.566;2023-02-15T05:19:46;101931.25;;;-1.27;98.01
76853;BME280;65825;52.232;10.566;2023-02-15T05:22:12;101925.28;;;-1.26;98.32
76853;BME280;65825;52.232;10.566;2023-02-15T05:24:37;101919.97;;;-1.29;98.68
76853;BME280;65825;52.232;10.566;2023-02-15T05:27:21;101917.66;;;-1.22;98.12
76853;BME280;65825;52.232;10.566;2023-02-15T05:30:05;101917.91;;;-1.14;97.53
76853;BME280;65825;52.232;10.566;2023-02-15T05:32:31;101921.06;;;-1.23;97.73
76853;BME280;65825;52.232;10.566;2023-02-15T05:34:56;101910.31;;;-1.33;97.42
76853;BME280;65825;52.232;10.566;2023-02-15T05:37:21;101918.28;;;-1.29;97.35
76853;BME280;65825;52.232;10.566;2023-02-15T05:39:46;101912.47;;;-1.22;95.49
76853;BME280;65825;52.232;10.566;2023-02-15T05:42:12;101908.91;;;-1.25;94.50
76853;BME280;65825;52.232;10.566;2023-02-15T05:44:37;101911.94;;;-1.37;94.07
76853;BME280;65825;52.232;10.566;2023-02-15T05:47:02;101917.47;;;-1.50;94.93
76853;BME280;65825;52.232;10.566;2023-02-15T05:49:28;101918.31;;;-1.51;95.35
76853;BME280;65825;52.232;10.566;2023-02-15T05:51:53;101913.09;;;-1.52;94.69
76853;BME280;65825;52.232;10.566;2023-02-15T05:54:19;101908.69;;;-1.55;94.41
76853;BME280;65825;52.232;10.566;2023-02-15T05:56:44;101914.63;;;-1.57;93.65
76853;BME280;65825;52.232;10.566;2023-02-15T05:59:09;101910.75;;;-1.68;94.10
76853;BME280;65825;52.232;10.566;2023-02-15T06:01:35;101910.59;;;-1.73;94.28
76853;BME280;65825;52.232;10.566;2023-02-15T06:04:00;101902.69;;;-1.76;94.64
76853;BME280;65825;52.232;10.566;2023-02-15T06:06:25;101920.78;;;-1.77;94.89
76853;BME280;65825;52.232;10.566;2023-02-15T06:08:51;101921.59;;;-1.78;95.51
76853;BME280;65825;52.232;10.566;2023-02-15T06:11:16;101931.84;;;-1.81;96.50
76853;BME280;65825;52.232;10.566;2023-02-15T06:13:41;101932.06;;;-1.75;95.86
76853;BME280;65825;52.232;10.566;2023-02-15T06:16:07;101933.19;;;-1.69;94.60
76853;BME280;65825;52.232;10.566;2023-02-15T06:18:32;101931.38;;;-1.71;93.57
76853;BME280;65825;52.232;10.566;2023-02-15T06:20:57;101928.34;;;-1.83;93.51
76853;BME280;65825;52.232;10.566;2023-02-15T06:23:23;101923.16;;;-2.05;93.02
76853;BME280;65825;52.232;10.566;2023-02-15T06:25:48;101918.72;;;-2.08;93.38
76853;BME280;65825;52.232;10.566;2023-02-15T06:28:13;101928.84;;;-2.14;93.56
76853;BME280;65825;52.232;10.566;2023-02-15T06:30:39;101927.72;;;-2.20;93.32
76853;BME280;65825;52.232;10.566;2023-02-15T06:33:04;101920.91;;;-2.18;93.66
76853;BME280;65825;52.232;10.566;2023-02-15T06:35:30;101921.00;;;-2.17;93.51
76853;BME280;65825;52.232;10.566;2023-02-15T06:37:55;101927.72;;;-2.20;93.37
76853;BME280;65825;52.232;10.566;2023-02-15T06:40:20;101930.22;;;-2.23;93.85
76853;BME280;65825;52.232;10.566;2023-02-15T06:42:46;101926.03;;;-2.20;93.33
76853;BME280;65825;52.232;10.566;2023-02-15T06:45:11;101922.44;;;-2.23;93.66
76853;BME280;65825;52.232;10.566;2023-02-15T06:47:37;101924.38;;;-2.18;93.74
76853;BME280;65825;52.232;10.566;2023-02-15T06:50:04;101921.91;;;-2.15;93.10
76853;BME280;65825;52.232;10.566;2023-02-15T06:52:30;101921.91;;;-2.15;93.58
76853;BME280;65825;52.232;10.566;2023-02-15T06:54:55;101922.91;;;-2.11;93.49
76853;BME280;65825;52.232;10.566;2023-02-15T06:57:20;101923.06;;;-2.07;93.25
76853;BME280;65825;52.232;10.566;2023-02-15T06:59:45;101918.19;;;-1.99;93.11
76853;BME280;65825;52.232;10.566;2023-02-15T07:02:11;101917.69;;;-1.91;93.29
76853;BME280;65825;52.232;10.566;2023-02-15T07:04:37;101917.69;;;-1.91;91.84
76853;BME280;65825;52.232;10.566;2023-02-15T07:07:03;101912.59;;;-1.88;92.09
76853;BME280;65825;52.232;10.566;2023-02-15T07:09:28;101916.97;;;-1.87;91.96
76853;BME280;65825;52.232;10.566;2023-02-15T07:11:53;101910.84;;;-1.89;92.15
76853;BME280;65825;52.232;10.566;2023-02-15T07:14:37;101909.69;;;-1.73;92.09
76853;BME280;65825;52.232;10.566;2023-02-15T07:17:03;101909.81;;;-1.70;90.74
76853;BME280;65825;52.232;10.566;2023-02-15T07:19:28;101905.53;;;-1.70;91.31
76853;BME280;65825;52.232;10.566;2023-02-15T07:21:53;101903.06;;;-1.67;91.98
76853;BME280;65825;52.232;10.566;2023-02-15T07:24:19;101893.94;;;-1.57;91.73
76853;BME280;65825;52.232;10.566;2023-02-15T07:26:44;101889.69;;;-1.55;91.36
76853;BME280;65825;52.232;10.566;2023-02-15T07:29:09;101885.47;;;-1.52;91.28
76853;BME280;65825;52.232;10.566;2023-02-15T07:31:34;101889.56;;;-1.58;91.60
76853;BME280;65825;52.232;10.566;2023-02-15T07:34:00;101887.31;;;-1.49;91.78
76853;BME280;65825;52.232;10.566;2023-02-15T07:36:25;101885.13;;;-1.38;91.80
76853;BME280;65825;52.232;10.566;2023-02-15T07:38:50;101891.63;;;-1.25;91.73
76853;BME280;65825;52.232;10.566;2023-02-15T07:41:16;101893.63;;;-1.18;91.82
76853;BME280;65825;52.232;10.566;2023-02-15T07:43:43;101886.00;;;-1.13;91.76
76853;BME280;65825;52.232;10.566;2023-02-15T07:46:11;101884.56;;;-1.05;91.74
76853;BME280;65825;52.232;10.566;2023-02-15T07:48:38;101875.56;;;-0.90;91.38
76853;BME280;65825;52.232;10.566;2023-02-15T07:51:06;101879.69;;;-0.70;90.60
76853;BME280;65825;52.232;10.566;2023-02-15T07:53:31;101865.31;;;-0.61;90.56
76853;BME280;65825;52.232;10.566;2023-02-15T07:56:05;101869.66;;;-0.60;90.83
76853;BME280;65825;52.232;10.566;2023-02-15T07:58:32;101865.53;;;-0.53;91.16
76853;BME280;65825;52.232;10.566;2023-02-15T08:01:16;101865.19;;;-0.37;91.84
76853;BME280;65825;52.232;10.566;2023-02-15T08:03:42;101870.22;;;-0.14;92.05
76853;BME280;65825;52.232;10.566;2023-02-15T08:06:07;101859.69;;;0.10;91.47
76853;BME280;65825;52.232;10.566;2023-02-15T08:08:36;101860.28;;;0.29;90.90
76853;BME280;65825;52.232;10.566;2023-02-15T08:11:20;101860.81;;;0.49;90.63
76853;BME280;65825;52.232;10.566;2023-02-15T08:14:06;101867.75;;;0.81;90.58
76853;BME280;65825;52.232;10.566;2023-02-15T08:16:52;101865.03;;;1.09;90.67
76853;BME280;65825;52.232;10.566;2023-02-15T08:19:18;101867.22;;;1.28;91.06
76853;BME280;65825;52.232;10.566;2023-02-15T08:21:49;101868.69;;;1.52;90.99
76853;BME280;65825;52.232;10.566;2023-02-15T08:24:17;101860.13;;;1.95;89.73
76853;BME280;65825;52.232;10.566;2023-02-15T08:26:43;101864.63;;;2.43;88.22
76853;BME280;65825;52.232;10.566;2023-02-15T08:29:10;101860.13;;;2.81;87.20
76853;BME280;65825;52.232;10.566;2023-02-15T08:31:36;101859.69;;;3.04;86.87
76853;BME280;65825;52.232;10.566;2023-02-15T08:34:03;101853.28;;;3.36;85.66
76853;BME280;65825;52.232;10.566;2023-02-15T08:36:30;101853.38;;;3.42;85.66
76853;BME280;65825;52.232;10.566;2023-02-15T08:39:01;101851.66;;;3.46;85.88
76853;BME280;65825;52.232;10.566;2023-02-15T08:41:29;101857.81;;;3.48;86.20
76853;BME280;65825;52.232;10.566;2023-02-15T08:43:57;101852.94;;;3.70;84.64
76853;BME280;65825;52.232;10.566;2023-02-15T08:46:24;101845.31;;;3.84;85.10
76853;BME280;65825;52.232;10.566;2023-02-15T08:48:49;101848.97;;;3.99;83.66
76853;BME280;65825;52.232;10.566;2023-02-15T08:51:17;101854.69;;;3.71;83.72
76853;BME280;65825;52.232;10.566;2023-02-15T08:53:45;101858.38;;;3.85;85.22
76853;BME280;65825;52.232;10.566;2023-02-15T08:56:11;101850.69;;;3.96;84.63
76853;BME280;65825;52.232;10.566;2023-02-15T08:58:37;101850.16;;;4.22;84.53
76853;BME280;65825;52.232;10.566;2023-02-15T09:01:10;101847.88;;;4.49;84.13
76853;BME280;65825;52.232;10.566;2023-02-15T09:03:35;101850.97;;;4.96;83.58
76853;BME280;65825;52.232;10.566;2023-02-15T09:06:01;101847.59;;;5.07;82.24
76853;BME280;65825;52.232;10.566;2023-02-15T09:08:27;101844.25;;;5.23;81.20
76853;BME280;65825;52.232;10.566;2023-02-15T09:10:53;101837.19;;;5.15;80.98
76853;BME280;65825;52.232;10.566;2023-02-15T09:13:19;101837.47;;;5.51;81.29
76853;BME280;65825;52.232;10.566;2023-02-15T09:15:45;101826.22;;;5.62;80.27
76853;BME280;65825;52.232;10.566;2023-02-15T09:18:10;101829.03;;;5.94;79.58
76853;BME280;65825;52.232;10.566;2023-02-15T09:20:37;101818.72;;;6.25;77.27
76853;BME280;65825;52.232;10.566;2023-02-15T09:23:03;101818.78;;;6.46;75.62
76853;BME280;65825;52.232;10.566;2023-02-15T09:25:28;101818.81;;;6.66;74.49
76853;BME280;65825;52.232;10.566;2023-02-15T09:27:53;101808.38;;;7.35;73.86
76853;BME280;65825;52.232;10.566;2023-02-15T09:30:19;101808.97;;;8.42;73.17
76853;BME280;65825;52.232;10.566;2023-02-15T09:32:44;101814.50;;;13.08;55.76
76853;BME280;65825;52.232;10.566;2023-02-15T09:35:11;101808.50;;;19.93;36.11
76853;BME280;65825;52.232;10.566;2023-02-15T09:37:37;101805.75;;;23.48;27.87
76853;BME280;65825;52.232;10.566;2023-02-15T09:40:06;101804.34;;;24.82;23.40
76853;BME280;65825;52.232;10.566;2023-02-15T09:42:56;101798.97;;;26.00;22.79
76853;BME280;65825;52.232;10.566;2023-02-15T09:48:23;101808.75;;;28.37;18.15
76853;BME280;65825;52.232;10.566;2023-02-15T09:53:47;101800.69;;;29.54;17.14
76853;BME280;65825;52.232;10.566;2023-02-15T09:56:19;101798.00;;;30.01;16.45
76853;BME280;65825;52.232;10.566;2023-02-15T10:04:54;101794.03;;;31.85;13.02
76853;BME280;65825;52.232;10.566;2023-02-15T10:08:00;101793.47;;;33.25;12.94
76853;BME280;65825;52.232;10.566;2023-02-15T10:14:28;101783.00;;;34.64;11.36
76853;BME280;65825;52.232;10.566;2023-02-15T10:22:25;101767.88;;;35.15;11.61
76853;BME280;65825;52.232;10.566;2023-02-15T10:27:58;101764.81;;;35.85;10.82
76853;BME280;65825;52.232;10.566;2023-02-15T10:30:50;101757.88;;;35.89;10.33
76853;BME280;65825;52.232;10.566;2023-02-15T10:41:37;101757.56;;;36.94;10.31
76853;BME280;65825;52.232;10.566;2023-02-15T10:44:23;101744.84;;;38.46;9.07
76853;BME280;65825;52.232;10.566;2023-02-15T10:47:01;101747.66;;;38.53;9.03
76853;BME280;65825;52.232;10.566;2023-02-15T10:49:46;101741.88;;;37.93;8.99
76853;BME280;65825;52.232;10.566;2023-02-15T11:00:45;101733.56;;;38.14;8.67
76853;BME280;65825;52.232;10.566;2023-02-15T11:03:29;101728.72;;;38.50;8.50
76853;BME280;65825;52.232;10.566;2023-02-15T11:06:03;101729.53;;;37.61;9.14
76853;BME280;65825;52.232;10.566;2023-02-15T11:08:37;101736.94;;;37.04;9.43
76853;BME280;65825;52.232;10.566;2023-02-15T11:11:08;101726.16;;;38.14;8.54
76853;BME280;65825;52.232;10.566;2023-02-15T11:13:57;101725.22;;;39.29;8.30
76853;BME280;65825;52.232;10.566;2023-02-15T11:16:28;101714.44;;;39.92;8.03
76853;BME280;65825;52.232;10.566;2023-02-15T11:19:50;101729.78;;;39.88;6.81
76853;BME280;65825;52.232;10.566;2023-02-15T11:21:53;101724.94;;;38.57;8.28
76853;BME280;65825;52.232;10.566;2023-02-15T11:24:21;101715.94;;;39.56;8.30
76853;BME280;65825;52.232;10.566;2023-02-15T11:26:54;101722.47;;;38.69;8.81
76853;BME280;65825;52.232;10.566;2023-02-15T11:29:31;101714.19;;;39.35;8.14
76853;BME280;65825;52.232;10.566;2023-02-15T11:32:02;101716.66;;;39.04;7.59
76853;BME280;65825;52.232;10.566;2023-02-15T11:34:35;101710.19;;;39.44;7.04
76853;BME280;65825;52.232;10.566;2023-02-15T11:37:13;101703.78;;;40.09;7.20
76853;BME280;65825;52.232;10.566;2023-02-15T11:39:41;101704.81;;;40.91;7.17
76853;BME280;65825;52.232;10.566;2023-02-15T11:42:14;101700.41;;;40.77;7.04
76853;BME280;65825;52.232;10.566;2023-02-15T11:47:11;101688.59;;;40.94;6.35
76853;BME280;65825;52.232;10.566;2023-02-15T11:49:38;101687.63;;;40.06;6.11
76853;BME280;65825;52.232;10.566;2023-02-15T11:52:14;101693.47;;;40.61;6.54
76853;BME280;65825;52.232;10.566;2023-02-15T11:54:50;101687.38;;;41.21;6.39
76853;BME280;65825;52.232;10.566;2023-02-15T11:57:28;101677.81;;;39.25;7.02
76853;BME280;65825;52.232;10.566;2023-02-15T12:00:24;101679.47;;;39.07;7.66
76853;BME280;65825;52.232;10.566;2023-02-15T12:02:53;101685.03;;;38.53;7.10
76853;BME280;65825;52.232;10.566;2023-02-15T12:05:21;101672.94;;;37.93;7.87
76853;BME280;65825;52.232;10.566;2023-02-15T12:10:28;101677.63;;;38.26;7.47
76853;BME280;65825;52.232;10.566;2023-02-15T12:13:16;101676.09;;;36.99;8.03
76853;BME280;65825;52.232;10.566;2023-02-15T12:15:44;101658.88;;;37.81;7.62
76853;BME280;65825;52.232;10.566;2023-02-15T12:18:26;101661.84;;;37.10;7.83
76853;BME280;65825;52.232;10.566;2023-02-15T12:20:52;101666.00;;;38.78;7.16
76853;BME280;65825;52.232;10.566;2023-02-15T12:23:17;101657.38;;;39.00;7.27
76853;BME280;65825;52.232;10.566;2023-02-15T12:25:52;101656.16;;;39.61;6.93
76853;BME280;65825;52.232;10.566;2023-02-15T12:28:26;101654.69;;;37.64;7.68
76853;BME280;65825;52.232;10.566;2023-02-15T12:30:55;101661.31;;;37.21;8.65
76853;BME280;65825;52.232;10.566;2023-02-15T12:33:28;101659.75;;;38.56;7.62
76853;BME280;65825;52.232;10.566;2023-02-15T12:36:03;101665.56;;;36.09;8.18
76853;BME280;65825;52.232;10.566;2023-02-15T12:38:29;101656.13;;;37.12;8.43
76853;BME280;65825;52.232;10.566;2023-02-15T12:41:03;101665.13;;;36.85;8.31
76853;BME280;65825;52.232;10.566;2023-02-15T12:43:34;101668.69;;;36.35;8.56
76853;BME280;65825;52.232;10.566;2023-02-15T12:46:20;101664.66;;;35.65;8.57
76853;BME280;65825;52.232;10.566;2023-02-15T12:48:45;101658.41;;;35.34;8.97
76853;BME280;65825;52.232;10.566;2023-02-15T12:51:14;101655.34;;;35.07;9.46
76853;BME280;65825;52.232;10.566;2023-02-15T12:53:42;101649.94;;;35.95;8.78
76853;BME280;65825;52.232;10.566;2023-02-15T12:56:09;101649.63;;;36.05;9.14
76853;BME280;65825;52.232;10.566;2023-02-15T12:58:36;101650.31;;;36.86;8.38
76853;BME280;65825;52.232;10.566;2023-02-15T13:03:29;101642.69;;;36.67;8.34
76853;BME280;65825;52.232;10.566;2023-02-15T13:05:56;101647.25;;;35.73;9.19
76853;BME280;65825;52.232;10.566;2023-02-15T13:08:31;101638.56;;;36.13;9.01
76853;BME280;65825;52.232;10.566;2023-02-15T13:11:08;101631.94;;;35.56;8.47
76853;BME280;65825;52.232;10.566;2023-02-15T13:13:45;101626.63;;;33.79;9.59
76853;BME280;65825;52.232;10.566;2023-02-15T13:16:13;101624.94;;;33.46;10.61
76853;BME280;65825;52.232;10.566;2023-02-15T13:18:44;101617.44;;;32.43;10.98
76853;BME280;65825;52.232;10.566;2023-02-15T13:21:14;101614.25;;;32.55;11.14
76853;BME280;65825;52.232;10.566;2023-02-15T13:26:45;101596.00;;;30.50;13.25
76853;BME280;65825;52.232;10.566;2023-02-15T13:29:18;101603.56;;;27.02;15.75
76853;BME280;65825;52.232;10.566;2023-02-15T13:31:46;101594.34;;;26.73;17.18
76853;BME280;65825;52.232;10.566;2023-02-15T13:34:20;101587.75;;;25.23;18.10
76853;BME280;65825;52.232;10.566;2023-02-15T13:36:54;101596.91;;;23.79;19.49
76853;BME280;65825;52.232;10.566;2023-02-15T13:39:38;101592.81;;;23.61;19.63
76853;BME280;65825;52.232;10.566;2023-02-15T13:42:17;101594.28;;;23.15;19.81
76853;BME280;65825;52.232;10.566;2023-02-15T13:47:40;101581.53;;;24.99;18.64
76853;BME280;65825;52.232;10.566;2023-02-15T13:53:18;101580.88;;;25.19;18.51
76853;BME280;65825;52.232;10.566;2023-02-15T13:58:30;101584.22;;;24.88;18.13
76853;BME280;65825;52.232;10.566;2023-02-15T14:01:17;101578.66;;;24.55;19.91
76853;BME280;65825;52.232;10.566;2023-02-15T14:09:36;101571.25;;;24.69;19.55
76853;BME280;65825;52.232;10.566;2023-02-15T14:14:48;101577.50;;;24.10;20.33
76853;BME280;65825;52.232;10.566;2023-02-15T14:19:56;101568.97;;;23.55;21.52
76853;BME280;65825;52.232;10.566;2023-02-15T14:22:40;101562.59;;;21.59;22.90
76853;BME280;65825;52.232;10.566;2023-02-15T14:25:18;101551.31;;;21.95;23.53
76853;BME280;65825;52.232;10.566;2023-02-15T14:27:58;101558.25;;;21.43;24.03
76853;BME280;65825;52.232;10.566;2023-02-15T14:30:30;101559.78;;;21.19;24.65